Schneifelwetter: Wetterstation Hallschlag, 537 m . NN
Wetterdaten: Donnerstag, 01.11.2012
Datum Zeit Temp. A. Feuchte A. Luftdruck Regen Wind Richtung Richtung Sonnenschein T Regen Taupunkt Windchill
01.11.2012 00:09 3,5 C 89 % 992 hPa 0,0 l/m 17,4 km/h (3 Bft) S22.5 185 0 min 0 min 1,9 C -4,0 C
01.11.2012 00:24 3,6 C 88 % 991 hPa 0,0 l/m 19,6 km/h (3 Bft) S45 180 0 min 0 min 1,8 C -4,8 C
01.11.2012 00:39 3,5 C 88 % 991 hPa 0,0 l/m 15,2 km/h (3 Bft) S22.5 185 0 min 0 min 1,7 C -2,8 C
01.11.2012 00:54 3,5 C 88 % 991 hPa 0,0 l/m 13,5 km/h (3 Bft) S22.5 180 0 min 0 min 1,7 C -1,9 C
01.11.2012 01:09 3,4 C 89 % 991 hPa 0,0 l/m 14,1 km/h (3 Bft) S45 175 0 min 0 min 1,8 C -2,4 C
01.11.2012 01:24 3,5 C 88 % 991 hPa 0,0 l/m 14,6 km/h (3 Bft) S22.5 180 0 min 0 min 1,7 C -2,5 C
01.11.2012 01:39 3,5 C 88 % 991 hPa 0,0 l/m 12,1 km/h (2 Bft) S22.5 170 0 min 0 min 1,7 C -1,0 C
01.11.2012 01:54 3,6 C 88 % 990 hPa 0,0 l/m 11,4 km/h (2 Bft) S22.5 170 0 min 0 min 1,8 C -0,5 C
01.11.2012 02:09 3,7 C 88 % 990 hPa 0,0 l/m 12,8 km/h (3 Bft) S-SO22.5 165 0 min 0 min 1,9 C -1,2 C
01.11.2012 02:24 3,7 C 88 % 990 hPa 0,0 l/m 11,6 km/h (2 Bft) S-SO22.5 165 0 min 0 min 1,9 C -0,5 C
01.11.2012 02:39 3,5 C 87 % 990 hPa 0,0 l/m 10,9 km/h (2 Bft) S22.5 170 0 min 0 min 1,5 C -0,2 C
01.11.2012 02:54 3,2 C 88 % 989 hPa 0,0 l/m 7,5 km/h (2 Bft) S-SO 165 0 min 0 min 1,4 C 2,2 C
01.11.2012 03:09 2,9 C 88 % 989 hPa 0,0 l/m 10,4 km/h (2 Bft) S-SO 165 0 min 0 min 1,1 C -0,5 C
01.11.2012 03:24 2,7 C 89 % 989 hPa 0,0 l/m 10,1 km/h (2 Bft) S-SW22.5 195 0 min 0 min 1,1 C -0,5 C
01.11.2012 03:39 2,5 C 88 % 989 hPa 0,0 l/m 9,0 km/h (2 Bft) W-SW22.5 245 0 min 0 min 0,7 C 0,1 C
01.11.2012 03:54 2,1 C 89 % 989 hPa 0,0 l/m 8,6 km/h (2 Bft) S22.5 170 0 min 0 min 0,5 C 0,0 C
01.11.2012 04:09 2,5 C 90 % 989 hPa 0,0 l/m 12,0 km/h (2 Bft) S-SW67.5 210 0 min 0 min 1,0 C -2,1 C
01.11.2012 04:24 3,2 C 90 % 988 hPa 0,0 l/m 15,5 km/h (3 Bft) S22.5 175 0 min 0 min 1,7 C -3,4 C
01.11.2012 04:39 3,5 C 89 % 988 hPa 0,0 l/m 16,0 km/h (3 Bft) S45 170 0 min 0 min 1,9 C -3,3 C
01.11.2012 04:54 3,3 C 89 % 988 hPa 0,0 l/m 17,2 km/h (3 Bft) S-SW45 195 0 min 0 min 1,7 C -4,1 C
01.11.2012 05:09 3,1 C 89 % 988 hPa 0,0 l/m 11,9 km/h (2 Bft) S-SO22.5 165 0 min 0 min 1,5 C -1,4 C
01.11.2012 05:24 3,3 C 90 % 988 hPa 0,0 l/m 17,6 km/h (3 Bft) S-SO22.5 165 0 min 0 min 1,8 C -4,3 C
01.11.2012 05:38 3,5 C 89 % 988 hPa 0,0 l/m 15,3 km/h (3 Bft) S45 170 0 min 0 min 1,9 C -2,9 C
01.11.2012 05:53 3,6 C 88 % 987 hPa 0,0 l/m 18,7 km/h (3 Bft) S22.5 175 0 min 0 min 1,8 C -4,4 C
01.11.2012 06:08 3,5 C 87 % 987 hPa 0,0 l/m 20,4 km/h (4 Bft) S45 170 0 min 0 min 1,5 C -5,3 C
01.11.2012 06:24 3,4 C 87 % 987 hPa 0,0 l/m 18,3 km/h (3 Bft) S45 170 0 min 0 min 1,4 C -4,5 C
01.11.2012 06:39 3,3 C 87 % 987 hPa 0,0 l/m 22,3 km/h (4 Bft) S22.5 175 0 min 0 min 1,3 C -6,3 C
01.11.2012 06:54 3,1 C 87 % 987 hPa 0,0 l/m 25,6 km/h (4 Bft) S22.5 185 0 min 0 min 1,2 C -7,7 C
01.11.2012 07:09 3,2 C 88 % 987 hPa 0,0 l/m 23,8 km/h (4 Bft) S45 170 0 min 0 min 1,4 C -7,0 C
01.11.2012 07:24 3,4 C 87 % 987 hPa 0,0 l/m 22,1 km/h (4 Bft) S45 180 0 min 0 min 1,4 C -6,1 C
01.11.2012 07:39 3,5 C 87 % 987 hPa 0,0 l/m 26,8 km/h (4 Bft) S45 185 0 min 0 min 1,5 C -7,6 C
01.11.2012 07:54 3,8 C 86 % 987 hPa 0,0 l/m 23,5 km/h (4 Bft) S22.5 170 0 min 0 min 1,7 C -6,1 C
01.11.2012 08:09 3,9 C 86 % 987 hPa 0,0 l/m 24,3 km/h (4 Bft) S22.5 175 0 min 0 min 1,8 C -6,2 C
01.11.2012 08:24 4,0 C 86 % 987 hPa 0,0 l/m 27,5 km/h (4 Bft) S45 180 0 min 0 min 1,9 C -7,1 C
01.11.2012 08:39 4,1 C 86 % 986 hPa 0,0 l/m 26,9 km/h (4 Bft) S22.5 185 0 min 0 min 2,0 C -6,8 C
01.11.2012 08:54 4,2 C 85 % 986 hPa 0,0 l/m 21,2 km/h (4 Bft) S45 170 0 min 0 min 1,9 C -4,7 C
01.11.2012 09:09 4,3 C 86 % 986 hPa 0,0 l/m 21,4 km/h (4 Bft) S-SO22.5 165 0 min 0 min 2,2 C -4,6 C
01.11.2012 09:24 4,5 C 86 % 986 hPa 0,0 l/m 24,5 km/h (4 Bft) S-SO22.5 165 0 min 0 min 2,4 C -5,5 C
01.11.2012 09:39 4,8 C 86 % 986 hPa 0,0 l/m 22,8 km/h (4 Bft) S-SO45 160 0 min 0 min 2,7 C -4,5 C
01.11.2012 09:54 4,9 C 85 % 985 hPa 0,0 l/m 25,1 km/h (4 Bft) S45 180 0 min 0 min 2,6 C -5,1 C
01.11.2012 10:15 5,3 C 85 % 985 hPa 0,0 l/m 24,6 km/h (4 Bft) S45 175 0 min 0 min 3,0 C -4,4 C
01.11.2012 10:30 5,9 C 86 % 985 hPa 0,0 l/m 19,1 km/h (3 Bft) S-SO45 165 0 min 0 min 3,7 C -1,7 C
01.11.2012 10:45 6,1 C 85 % 985 hPa 0,0 l/m 19,1 km/h (3 Bft) S-SO45 165 0 min 0 min 3,8 C -1,4 C
01.11.2012 11:00 5,8 C 87 % 985 hPa 0,0 l/m 22,8 km/h (4 Bft) S-SW45 200 0 min 0 min 3,8 C -3,1 C
01.11.2012 11:15 5,7 C 89 % 985 hPa 0,0 l/m 22,8 km/h (4 Bft) S-SW45 200 0 min 0 min 4,0 C -3,3 C
01.11.2012 11:30 5,9 C 90 % 985 hPa 0,3 l/m 28,0 km/h (4 Bft) S45 180 0 min 15 min 4,4 C -4,6 C
01.11.2012 11:45 6,0 C 90 % 985 hPa 0,0 l/m 31,8 km/h (5 Bft) S-SW45 205 0 min 0 min 4,5 C -5,4 C
01.11.2012 12:00 6,0 C 91 % 984 hPa 0,0 l/m 34,4 km/h (5 Bft) S45 185 0 min 0 min 4,6 C -6,0 C
01.11.2012 12:15 5,8 C 92 % 984 hPa 0,0 l/m 33,0 km/h (5 Bft) S-SW67.5 210 0 min 0 min 4,6 C -6,0 C
01.11.2012 12:30 5,9 C 93 % 984 hPa 0,3 l/m 42,1 km/h (6 Bft) SW67.5 225 0 min 15 min 4,9 C -7,5 C
01.11.2012 12:45 5,8 C 93 % 984 hPa 0,3 l/m 42,2 km/h (6 Bft) SW45 215 0 min 15 min 4,8 C -7,7 C
01.11.2012 13:00 5,8 C 93 % 984 hPa 0,0 l/m 33,6 km/h (5 Bft) SW67.5 225 0 min 0 min 4,8 C -6,1 C
01.11.2012 13:15 5,7 C 93 % 984 hPa 0,0 l/m 35,8 km/h (5 Bft) S-SW45 205 0 min 0 min 4,7 C -6,7 C
01.11.2012 13:30 5,6 C 94 % 984 hPa 0,0 l/m 33,4 km/h (5 Bft) S-SW67.5 205 0 min 0 min 4,7 C -6,3 C
01.11.2012 13:45 5,6 C 94 % 984 hPa 0,0 l/m 32,5 km/h (5 Bft) S-SW45 210 0 min 0 min 4,7 C -6,1 C
01.11.2012 14:00 5,6 C 94 % 984 hPa 0,0 l/m 32,9 km/h (5 Bft) S-SW45 205 0 min 0 min 4,7 C -6,2 C
01.11.2012 14:15 5,6 C 94 % 984 hPa 0,0 l/m 38,2 km/h (5 Bft) SW45 215 0 min 0 min 4,7 C -7,3 C
01.11.2012 14:30 5,5 C 94 % 984 hPa 0,0 l/m 44,4 km/h (6 Bft) S-SW67.5 205 0 min 0 min 4,6 C -8,5 C
01.11.2012 14:45 5,5 C 94 % 984 hPa 0,0 l/m 33,6 km/h (5 Bft) SW67.5 215 0 min 0 min 4,6 C -6,5 C
01.11.2012 15:00 5,5 C 94 % 984 hPa 0,0 l/m 36,1 km/h (5 Bft) S-SW45 205 0 min 0 min 4,6 C -7,1 C
01.11.2012 15:15 5,6 C 95 % 984 hPa 0,0 l/m 32,4 km/h (5 Bft) W-SW45 240 0 min 0 min 4,9 C -6,1 C
01.11.2012 15:30 5,5 C 95 % 984 hPa 0,0 l/m 30,2 km/h (5 Bft) SW45 225 0 min 0 min 4,8 C -5,7 C
01.11.2012 15:45 5,6 C 94 % 985 hPa 0,0 l/m 34,6 km/h (5 Bft) W-SW45 250 0 min 0 min 4,7 C -6,6 C
01.11.2012 16:00 5,5 C 94 % 985 hPa 0,0 l/m 30,6 km/h (5 Bft) SW45 230 0 min 0 min 4,6 C -5,8 C
01.11.2012 16:15 5,3 C 94 % 985 hPa 4,5 l/m 29,7 km/h (5 Bft) SW45 215 0 min 15 min 4,4 C -5,9 C
01.11.2012 16:30 5,2 C 94 % 985 hPa 0,0 l/m 26,1 km/h (4 Bft) S-SW45 205 0 min 0 min 4,3 C -5,0 C
01.11.2012 16:45 4,9 C 93 % 985 hPa 0,0 l/m 35,0 km/h (5 Bft) SW45 230 0 min 0 min 3,9 C -7,7 C
01.11.2012 17:00 4,8 C 93 % 985 hPa 0,0 l/m 29,8 km/h (5 Bft) S-SW22.5 205 0 min 0 min 3,8 C -6,6 C
01.11.2012 17:15 4,1 C 91 % 986 hPa 0,0 l/m 60,9 km/h (7 Bft) W-SW45 250 0 min 0 min 2,8 C -12,5 C
01.11.2012 17:30 3,1 C 91 % 986 hPa 0,0 l/m 52,1 km/h (7 Bft) SW45 230 0 min 0 min 1,8 C -13,2 C
01.11.2012 17:45 3,0 C 92 % 986 hPa 0,0 l/m 33,9 km/h (5 Bft) W-SW45 240 0 min 0 min 1,8 C -10,2 C
01.11.2012 18:00 2,8 C 93 % 986 hPa 0,0 l/m 33,5 km/h (5 Bft) SW45 230 0 min 0 min 1,8 C -10,4 C
01.11.2012 18:15 2,8 C 94 % 987 hPa 0,0 l/m 31,8 km/h (5 Bft) SW45 235 0 min 0 min 1,9 C -10,0 C
01.11.2012 18:30 2,9 C 94 % 987 hPa 0,0 l/m 21,8 km/h (4 Bft) SW45 225 0 min 0 min 2,0 C -6,6 C
01.11.2012 18:45 2,6 C 94 % 987 hPa 0,0 l/m 28,0 km/h (4 Bft) SW67.5 230 0 min 0 min 1,7 C -9,2 C
01.11.2012 19:00 2,6 C 94 % 987 hPa 0,0 l/m 16,1 km/h (3 Bft) S-SW22.5 205 0 min 0 min 1,7 C -4,4 C
01.11.2012 19:15 3,0 C 95 % 987 hPa 0,0 l/m 19,4 km/h (3 Bft) SW45 225 0 min 0 min 2,3 C -5,5 C
01.11.2012 19:30 3,2 C 95 % 987 hPa 0,0 l/m 27,5 km/h (4 Bft) W45 270 0 min 0 min 2,5 C -8,2 C
01.11.2012 19:45 3,0 C 95 % 988 hPa 0,0 l/m 30,6 km/h (5 Bft) W-SW67.5 255 0 min 0 min 2,3 C -9,4 C
01.11.2012 20:00 2,9 C 95 % 988 hPa 0,0 l/m 26,0 km/h (4 Bft) W-SW22.5 250 0 min 0 min 2,2 C -8,1 C
01.11.2012 20:15 2,8 C 95 % 988 hPa 0,0 l/m 10,0 km/h (2 Bft) W-SW22.5 240 0 min 0 min 2,1 C -0,4 C
01.11.2012 20:30 3,1 C 95 % 988 hPa 0,0 l/m 13,0 km/h (3 Bft) W-SW22.5 240 0 min 0 min 2,4 C -2,1 C
01.11.2012 20:45 3,5 C 96 % 988 hPa 2,1 l/m 26,0 km/h (4 Bft) W-SW45 245 0 min 15 min 2,9 C -7,3 C
01.11.2012 21:00 3,7 C 96 % 988 hPa 0,0 l/m 38,1 km/h (5 Bft) W-SW22.5 245 0 min 0 min 3,1 C -10,1 C
01.11.2012 21:15 3,9 C 96 % 988 hPa 0,0 l/m 29,7 km/h (5 Bft) W-SW45 245 0 min 0 min 3,3 C -7,8 C
01.11.2012 21:30 3,8 C 96 % 988 hPa 0,0 l/m 24,4 km/h (4 Bft) SW67.5 230 0 min 0 min 3,2 C -6,4 C
01.11.2012 21:45 3,8 C 96 % 988 hPa 0,0 l/m 23,8 km/h (4 Bft) SW45 230 0 min 0 min 3,2 C -6,2 C
01.11.2012 22:00 3,9 C 96 % 989 hPa 0,6 l/m 33,3 km/h (5 Bft) S-SW45 205 0 min 15 min 3,3 C -8,8 C
01.11.2012 22:15 3,9 C 96 % 989 hPa 0,0 l/m 22,4 km/h (4 Bft) SW67.5 225 0 min 0 min 3,3 C -5,5 C
01.11.2012 22:30 3,9 C 96 % 989 hPa 0,0 l/m 17,6 km/h (3 Bft) W-SW45 240 0 min 0 min 3,3 C -3,5 C
01.11.2012 22:45 3,9 C 96 % 989 hPa 0,0 l/m 36,0 km/h (5 Bft) W-SW45 245 0 min 0 min 3,3 C -9,4 C
01.11.2012 23:00 3,9 C 95 % 989 hPa 0,0 l/m 35,6 km/h (5 Bft) W-SW45 255 0 min 0 min 3,2 C -9,3 C
01.11.2012 23:15 3,8 C 95 % 990 hPa 0,0 l/m 31,1 km/h (5 Bft) W-SW45 240 0 min 0 min 3,1 C -8,4 C
01.11.2012 23:30 3,7 C 95 % 990 hPa 0,0 l/m 29,7 km/h (5 Bft) W-SW45 240 0 min 0 min 3,0 C -8,1 C
01.11.2012 23:45 3,6 C 95 % 990 hPa 0,0 l/m 32,8 km/h (5 Bft) SW45 230 0 min 0 min 2,9 C -9,1 C
_ Min-Zeit 03:54 08:54 12:00 - 02:54 - - - - 03:54 17:30
Minimum _ 2,1 C 85 % 984 hPa - 7,5 km/h (2 Bft) - - - - 0,5 C -13,2 C
_ Max-Zeit 10:45 20:45 00:09 16:15 17:15 - - 00:09 11:30 15:15 02:54
Maximum _ 6,1 C 96 % 992 hPa 4,5 l/m 60,9 km/h
W-SW (7 Bft)
- - 0 min 15 min 4,9 C 2,2 C
Durchschnitt _ 4,1 C 91 % 987 hPa #8,1 l/m 25,0 km/h (4 Bft) S - #0 min. #1:30 h 2,7 C -5,4 C